createdAt,value
2022-07-31T00:02:15.392Z,2
2022-07-31T00:04:21.210Z,2.3
2022-07-31T00:06:27.005Z,1.7
2022-07-31T00:08:32.809Z,2
2022-07-31T00:10:38.578Z,2
2022-07-31T00:12:44.371Z,1.9
2022-07-31T00:14:53.134Z,2.6
2022-07-31T00:16:58.924Z,1.8
2022-07-31T00:19:04.708Z,2.4
2022-07-31T00:21:10.540Z,1.6
2022-07-31T00:23:19.009Z,2.1
2022-07-31T00:25:22.104Z,2.3
2022-07-31T00:27:27.894Z,2.1
2022-07-31T00:33:48.274Z,2.4
2022-07-31T00:34:52.666Z,3.4
2022-07-31T00:43:18.830Z,2.9
2022-07-31T00:49:37.738Z,2.9
2022-07-31T00:53:47.797Z,3.2
2022-07-31T00:58:02.387Z,2.8
2022-07-31T01:02:13.991Z,2.8
2022-07-31T01:04:20.009Z,1.6
2022-07-31T01:06:25.573Z,2.8
2022-07-31T01:08:31.447Z,1.9
2022-07-31T01:10:37.180Z,2.9
2022-07-31T01:12:47.346Z,2.7
2022-07-31T01:14:51.782Z,2
2022-07-31T01:16:57.589Z,2.2
2022-07-31T01:19:03.365Z,2.9
2022-07-31T01:21:09.192Z,2.7
2022-07-31T01:23:14.982Z,2
2022-07-31T01:29:35.346Z,4.1
2022-07-31T01:32:45.520Z,2.2
2022-07-31T01:41:11.695Z,2.2
2022-07-31T01:43:17.487Z,1.8
2022-07-31T01:45:23.324Z,2.1
2022-07-31T01:47:29.132Z,1.7
2022-07-31T01:49:35.030Z,2
2022-07-31T01:51:40.736Z,2.1
2022-07-31T01:53:46.529Z,2.7
2022-07-31T01:56:02.070Z,1.7
2022-07-31T01:58:01.146Z,2.1
2022-07-31T02:00:06.945Z,1.4
2022-07-31T02:02:12.741Z,1.7
2022-07-31T02:12:44.792Z,2.7
2022-07-31T02:16:56.397Z,3.2
2022-07-31T02:19:02.345Z,1.7
2022-07-31T02:21:08.029Z,1.9
2022-07-31T02:30:39.828Z,2.6
2022-07-31T02:32:44.464Z,1.9
2022-07-31T02:34:50.356Z,2.2
2022-07-31T02:36:56.070Z,2
2022-07-31T02:39:04.833Z,2.8
2022-07-31T02:41:10.666Z,2.2
2022-07-31T02:43:16.449Z,2.2
2022-07-31T02:45:22.277Z,1.7
2022-07-31T02:47:28.049Z,1.9
2022-07-31T02:49:33.937Z,2.1
2022-07-31T02:53:50.036Z,2.6
2022-07-31T02:55:55.803Z,2
2022-07-31T02:58:01.610Z,2
2022-07-31T03:00:07.408Z,2.4
2022-07-31T03:06:24.817Z,2.9
2022-07-31T03:10:39.375Z,2.2
2022-07-31T03:12:45.171Z,2
2022-07-31T03:21:08.381Z,3.6
2022-07-31T03:23:17.148Z,2.3
2022-07-31T03:25:22.946Z,2.9
2022-07-31T03:27:28.760Z,2.3
2022-07-31T03:31:59.995Z,2.6
2022-07-31T03:34:05.705Z,2.7
2022-07-31T03:40:26.033Z,2.3
2022-07-31T03:48:49.339Z,2.6
2022-07-31T03:50:58.009Z,2.2
2022-07-31T03:53:03.782Z,2.2
2022-07-31T03:57:15.390Z,4
2022-07-31T04:01:27.069Z,1.9
2022-07-31T04:03:32.808Z,2.2
2022-07-31T04:07:47.395Z,2.8
2022-07-31T04:09:53.317Z,2.9
2022-07-31T04:14:04.793Z,3
2022-07-31T04:16:10.589Z,2.9
2022-07-31T04:18:16.393Z,2.4
2022-07-31T04:20:25.196Z,2.5
2022-07-31T04:25:41.213Z,2.5
2022-07-31T04:27:47.927Z,2.4
2022-07-31T04:29:53.623Z,3.1
2022-07-31T04:31:58.602Z,3.3
2022-07-31T04:34:07.402Z,3.3
2022-07-31T04:36:29.259Z,3
2022-07-31T04:38:18.998Z,2.6
2022-07-31T04:40:24.855Z,2.1
2022-07-31T04:42:32.911Z,3.6
2022-07-31T04:44:36.427Z,2.6
2022-07-31T04:46:42.260Z,3.2
2022-07-31T04:48:51.101Z,2.6
2022-07-31T04:50:56.840Z,2.3
2022-07-31T04:53:02.653Z,2.5
2022-07-31T05:01:25.887Z,3.4
2022-07-31T05:03:34.653Z,3.9
2022-07-31T05:05:40.460Z,2.9
2022-07-31T05:07:46.255Z,3
2022-07-31T05:09:52.061Z,3.5
2022-07-31T05:11:57.861Z,3.3
2022-07-31T05:14:03.693Z,4.1
2022-07-31T05:16:09.515Z,4.3
2022-07-31T05:18:18.260Z,3.8
2022-07-31T05:20:24.056Z,5.1
2022-07-31T05:22:29.857Z,4.7
2022-07-31T05:25:40.028Z,4
2022-07-31T05:27:45.839Z,4.7
2022-07-31T05:32:10.126Z,4.4
2022-07-31T05:34:06.216Z,5.2
2022-07-31T05:38:17.795Z,5.2
2022-07-31T05:40:23.606Z,5.2
2022-07-31T05:42:29.413Z,5.2
2022-07-31T05:44:35.204Z,5.3
2022-07-31T05:48:49.780Z,5.3
2022-07-31T05:50:55.555Z,4.7
2022-07-31T05:57:12.954Z,3.9
2022-07-31T05:59:18.764Z,5.1
2022-07-31T06:03:38.267Z,5.2
2022-07-31T06:05:39.080Z,6.2
2022-07-31T06:07:51.863Z,5
2022-07-31T06:09:50.713Z,4
2022-07-31T06:11:56.479Z,5.4
2022-07-31T06:14:02.245Z,3.8
2022-07-31T06:16:11.036Z,4.5
2022-07-31T06:18:16.810Z,4.1
2022-07-31T06:20:22.602Z,4.6
2022-07-31T06:21:30.569Z,4.6
2022-07-31T06:23:32.861Z,4.1
2022-07-31T06:25:39.167Z,4.2
2022-07-31T06:27:44.992Z,4.2
2022-07-31T06:29:53.124Z,4.2
2022-07-31T06:31:58.846Z,3.4
2022-07-31T06:38:16.207Z,4
2022-07-31T06:44:41.349Z,4.8
2022-07-31T06:48:48.419Z,3.9
2022-07-31T06:51:08.530Z,4.2
2022-07-31T06:52:59.722Z,4.5
2022-07-31T06:55:05.501Z,4.5
2022-07-31T06:57:11.280Z,4.8
2022-07-31T06:59:39.182Z,5.5
2022-07-31T07:01:25.928Z,5.3
2022-07-31T07:03:31.622Z,4.1
2022-07-31T07:05:37.395Z,4.8
2022-07-31T07:07:43.169Z,5.3
2022-07-31T07:16:09.267Z,4
2022-07-31T07:20:46.244Z,4.7
2022-07-31T07:22:52.007Z,4.4
2022-07-31T07:24:57.779Z,3.8
2022-07-31T07:27:06.544Z,2.9
2022-07-31T07:31:18.103Z,3.5
2022-07-31T07:35:33.569Z,3
2022-07-31T07:37:39.129Z,2.8
2022-07-31T07:43:55.701Z,3.3
2022-07-31T07:46:01.527Z,4.1
2022-07-31T07:48:07.618Z,3.1
2022-07-31T07:50:13.014Z,3.4
2022-07-31T07:52:18.818Z,4
2022-07-31T07:54:24.595Z,3.3
2022-07-31T07:56:33.315Z,3.6
2022-07-31T07:58:39.122Z,8.5
2022-07-31T08:00:44.962Z,4.1
2022-07-31T08:03:02.878Z,4.3
2022-07-31T08:09:07.982Z,3.4
2022-07-31T08:11:17.275Z,3.6
2022-07-31T08:13:22.542Z,3.6
2022-07-31T08:15:28.264Z,3.8
2022-07-31T08:18:38.414Z,4
2022-07-31T08:22:49.924Z,5.7
2022-07-31T08:24:58.676Z,6.1
2022-07-31T08:27:04.438Z,4.7
2022-07-31T08:29:10.214Z,5.3
2022-07-31T08:31:15.993Z,5.4
2022-07-31T08:33:21.763Z,8.5
2022-07-31T08:35:27.522Z,6.6
2022-07-31T08:38:01.148Z,5.6
2022-07-31T08:39:42.094Z,5.1
2022-07-31T08:41:47.817Z,6.3
2022-07-31T08:44:02.806Z,4.6
2022-07-31T08:50:10.882Z,6.4
2022-07-31T08:52:16.653Z,6.7
2022-07-31T08:58:39.799Z,6.4
2022-07-31T09:00:44.350Z,6.6
2022-07-31T09:02:50.083Z,6.1
2022-07-31T09:04:55.848Z,7.8
2022-07-31T09:07:01.884Z,6.8
2022-07-31T09:11:16.111Z,9
2022-07-31T09:14:26.262Z,9
2022-07-31T09:16:32.054Z,7.8
2022-07-31T09:18:37.804Z,8.6
2022-07-31T09:20:43.598Z,8.4
2022-07-31T09:22:52.318Z,8.4
2022-07-31T09:24:58.102Z,6.6
2022-07-31T09:29:09.625Z,9.5
2022-07-31T09:31:15.382Z,8.5
2022-07-31T09:33:21.154Z,8.4
2022-07-31T09:35:26.927Z,8
2022-07-31T09:37:35.658Z,9.8
2022-07-31T09:39:45.840Z,8.7
2022-07-31T09:42:01.112Z,8.4
2022-07-31T09:43:52.960Z,9.1
2022-07-31T09:45:58.737Z,7.9
2022-07-31T09:48:04.474Z,8.7
2022-07-31T09:52:18.980Z,10.1
2022-07-31T09:56:30.489Z,8.9
2022-07-31T09:58:36.243Z,10.2
2022-07-31T10:00:42.075Z,8.2
2022-07-31T10:02:47.750Z,8
2022-07-31T10:07:02.634Z,10.5
2022-07-31T10:09:07.992Z,9.9
2022-07-31T10:11:16.416Z,9.7
2022-07-31T10:12:18.108Z,9.7
2022-07-31T10:14:23.875Z,10
2022-07-31T10:16:29.630Z,9.5
2022-07-31T10:18:37.333Z,10
2022-07-31T10:20:44.111Z,11.1
2022-07-31T10:22:50.102Z,10.6
2022-07-31T10:24:55.629Z,11.8
2022-07-31T10:27:04.870Z,13
2022-07-31T10:29:07.136Z,11.8
2022-07-31T10:31:12.896Z,12.5
2022-07-31T10:33:42.486Z,12.1
2022-07-31T10:35:27.420Z,15
2022-07-31T10:37:33.176Z,12.4
2022-07-31T10:39:38.917Z,12.6
2022-07-31T10:41:44.685Z,12.1
2022-07-31T10:43:50.457Z,13.5
2022-07-31T10:45:56.216Z,12.3
2022-07-31T10:48:01.972Z,12.9
2022-07-31T10:50:10.721Z,13.9
2022-07-31T10:52:16.496Z,15.4
2022-07-31T10:54:22.240Z,13.8
2022-07-31T11:06:59.788Z,13.6
2022-07-31T11:09:05.532Z,13.3
2022-07-31T11:11:36.706Z,14.1
2022-07-31T11:13:42.485Z,13.8
2022-07-31T11:15:48.220Z,13
2022-07-31T11:18:22.652Z,13.9
2022-07-31T11:22:31.543Z,10.9
2022-07-31T11:24:14.233Z,11.7
2022-07-31T11:26:33.496Z,12.2
2022-07-31T11:28:25.761Z,13.5
2022-07-31T11:30:31.511Z,11.4
2022-07-31T11:34:46.028Z,13.8
2022-07-31T11:38:57.518Z,12.9
2022-07-31T11:43:25.621Z,14.7
2022-07-31T11:53:40.779Z,15.1
2022-07-31T11:55:46.551Z,14.3
2022-07-31T11:59:58.120Z,15.9
2022-07-31T12:02:06.818Z,14.7
2022-07-31T12:06:18.350Z,16
2022-07-31T12:10:01.930Z,15.5
2022-07-31T12:15:48.733Z,18.4
2022-07-31T12:17:54.478Z,15.6
2022-07-31T12:20:00.312Z,15.8
2022-07-31T12:22:05.985Z,14.9
2022-07-31T12:26:17.501Z,18.8
2022-07-31T12:30:32.018Z,17.6
2022-07-31T12:32:37.754Z,18
2022-07-31T12:36:49.273Z,17.4
2022-07-31T12:38:55.023Z,17.5
2022-07-31T12:41:00.782Z,17.9
2022-07-31T12:43:06.552Z,15.4
2022-07-31T12:45:19.234Z,18.1
2022-07-31T12:47:21.031Z,15.5
2022-07-31T12:49:26.837Z,16.8
2022-07-31T12:51:46.016Z,15.2
2022-07-31T12:53:38.322Z,16.2
2022-07-31T12:55:44.045Z,15.3
2022-07-31T12:57:51.845Z,15.4
2022-07-31T12:59:58.551Z,18.9
2022-07-31T13:05:14.446Z,17.1
2022-07-31T13:07:20.224Z,15.1
2022-07-31T13:09:25.948Z,14.9
2022-07-31T13:11:45.592Z,14.1
2022-07-31T13:13:40.449Z,14.9
2022-07-31T13:15:46.197Z,11.6
2022-07-31T13:17:51.939Z,11.4
2022-07-31T13:19:57.681Z,13.7
2022-07-31T13:22:03.437Z,12.7
2022-07-31T13:24:09.180Z,10.5
2022-07-31T13:26:14.932Z,11.5
2022-07-31T13:28:23.663Z,10.7
2022-07-31T13:30:29.411Z,10.2
2022-07-31T13:32:35.143Z,8.9
2022-07-31T13:34:40.919Z,8.4
2022-07-31T13:36:46.803Z,8.5
2022-07-31T13:38:52.430Z,7.8
2022-07-31T13:40:58.162Z,7.8
2022-07-31T13:43:06.898Z,7.6
2022-07-31T13:45:12.634Z,7.1
2022-07-31T13:47:18.374Z,6.3
2022-07-31T13:49:24.135Z,5.3
2022-07-31T13:51:29.969Z,9.8
2022-07-31T13:53:35.595Z,7.8
2022-07-31T13:55:41.336Z,7
2022-07-31T13:57:50.019Z,7.6
2022-07-31T13:59:55.773Z,8.5
2022-07-31T14:02:03.881Z,6.5
2022-07-31T14:03:05.856Z,7.4
2022-07-31T14:05:11.587Z,7.2
2022-07-31T14:07:17.491Z,5.5
2022-07-31T14:09:23.081Z,5.4
2022-07-31T14:13:42.346Z,6.3
2022-07-31T14:17:48.949Z,5.5
2022-07-31T14:19:54.680Z,6.2
2022-07-31T14:22:00.470Z,5.2
2022-07-31T14:24:06.159Z,6.6
2022-07-31T14:26:14.624Z,7.4
2022-07-31T14:28:20.359Z,6.9
2022-07-31T14:30:26.081Z,4.7
2022-07-31T14:32:31.810Z,5.1
2022-07-31T14:34:37.533Z,6.9
2022-07-31T14:36:43.282Z,8.4
2022-07-31T14:38:48.998Z,4.9
2022-07-31T14:40:57.730Z,6.9
2022-07-31T14:43:03.511Z,5.1
2022-07-31T14:45:09.203Z,6
2022-07-31T14:51:26.391Z,5.8
2022-07-31T14:57:46.595Z,4
2022-07-31T14:59:53.963Z,4
2022-07-31T15:02:25.040Z,3.7
2022-07-31T15:04:30.765Z,3.1
2022-07-31T15:06:50.873Z,3.5
2022-07-31T15:08:45.258Z,4.2
2022-07-31T15:12:56.701Z,3.9
2022-07-31T15:15:02.454Z,5.2
2022-07-31T15:17:08.471Z,2.3
2022-07-31T15:19:13.940Z,4.6
2022-07-31T15:21:19.680Z,4.2
2022-07-31T15:23:35.679Z,6.8
2022-07-31T15:27:39.914Z,3.4
2022-07-31T15:30:00.249Z,3.6
2022-07-31T15:31:51.444Z,3.9
2022-07-31T15:33:57.175Z,5
2022-07-31T15:36:02.933Z,4.4
2022-07-31T15:38:11.708Z,3.3
2022-07-31T15:40:17.465Z,3.1
2022-07-31T15:42:23.363Z,3.5
2022-07-31T15:44:28.976Z,2.9
2022-07-31T15:46:34.715Z,3
2022-07-31T15:48:40.490Z,3.4
2022-07-31T15:50:46.248Z,2.4
2022-07-31T15:52:54.987Z,3.5
2022-07-31T15:55:00.735Z,2.8
2022-07-31T15:57:06.831Z,2.9
2022-07-31T16:00:16.612Z,3
2022-07-31T16:02:22.369Z,2
2022-07-31T16:04:31.685Z,2.2
2022-07-31T16:06:36.848Z,4.6
2022-07-31T16:10:52.642Z,2.8
2022-07-31T16:12:54.143Z,3.2
2022-07-31T16:14:59.884Z,2.8
2022-07-31T16:17:05.899Z,2.7
2022-07-31T16:23:25.929Z,3.9
2022-07-31T16:27:37.448Z,3
2022-07-31T16:31:48.984Z,2.8
2022-07-31T16:33:54.748Z,3.2
2022-07-31T16:36:03.496Z,3.5
2022-07-31T16:38:09.274Z,2.4
2022-07-31T16:40:28.384Z,3.7
2022-07-31T16:42:20.786Z,2.7
2022-07-31T16:44:26.534Z,2.9
2022-07-31T16:46:32.322Z,2.3
2022-07-31T16:48:38.637Z,4.8
2022-07-31T16:50:48.424Z,4.2
2022-07-31T16:52:55.111Z,4.3
2022-07-31T16:54:58.907Z,4.4
2022-07-31T16:56:03.270Z,3.7
2022-07-31T17:00:14.814Z,3.6
2022-07-31T17:08:40.862Z,4
2022-07-31T17:10:49.106Z,4.7
2022-07-31T17:12:52.371Z,9.7
2022-07-31T17:14:58.160Z,5.6
2022-07-31T17:17:04.092Z,5
2022-07-31T17:19:13.150Z,6.1
2022-07-31T17:21:18.440Z,4.5
2022-07-31T17:25:29.959Z,6.3
2022-07-31T17:27:35.748Z,4.1
2022-07-31T17:29:41.491Z,4.8
2022-07-31T17:31:47.361Z,7.8
2022-07-31T17:33:59.961Z,6
2022-07-31T17:38:07.542Z,6
2022-07-31T17:40:40.884Z,4.5
2022-07-31T17:42:21.689Z,3.7
2022-07-31T17:44:24.839Z,5.2
2022-07-31T17:47:07.553Z,6
2022-07-31T17:53:59.670Z,4.7
2022-07-31T17:56:01.044Z,4.3
2022-07-31T17:58:06.807Z,3.7
2022-07-31T18:00:12.573Z,4.3
2022-07-31T18:02:21.431Z,4.1
2022-07-31T18:04:27.085Z,3.6
2022-07-31T18:06:32.833Z,5.1
2022-07-31T18:08:38.611Z,5.6
2022-07-31T18:10:54.240Z,6
2022-07-31T18:12:57.311Z,4.6
2022-07-31T18:14:55.899Z,4.8
2022-07-31T18:17:04.676Z,5.2
2022-07-31T18:19:10.433Z,5.6
2022-07-31T18:21:16.191Z,4.5
2022-07-31T18:25:27.762Z,5.5
2022-07-31T18:29:39.294Z,6.1
2022-07-31T18:31:48.045Z,5.3
2022-07-31T18:35:59.632Z,4
2022-07-31T18:38:05.377Z,3.5
2022-07-31T18:46:31.456Z,4.9
2022-07-31T18:48:37.235Z,5.6
2022-07-31T18:50:59.053Z,5.8
2022-07-31T18:55:20.051Z,5.9
2022-07-31T18:57:25.823Z,4.6
2022-07-31T18:59:34.598Z,5.8
2022-07-31T19:01:40.455Z,6.4
2022-07-31T19:03:46.183Z,5.9
2022-07-31T19:05:51.956Z,6.3
2022-07-31T19:07:57.719Z,5
2022-07-31T19:10:03.526Z,5.6
2022-07-31T19:12:09.626Z,6.5
2022-07-31T19:14:18.065Z,5.5
2022-07-31T19:16:23.839Z,4.7
2022-07-31T19:18:29.646Z,5.9
2022-07-31T19:22:41.213Z,6.1
2022-07-31T19:24:46.979Z,5.4
2022-07-31T19:26:52.787Z,5.3
2022-07-31T19:29:01.533Z,6.7
2022-07-31T19:31:07.374Z,6.1
2022-07-31T19:35:18.899Z,7.1
2022-07-31T19:37:24.657Z,6.2
2022-07-31T19:45:58.845Z,6.4
2022-07-31T19:47:56.603Z,7.4
2022-07-31T19:49:01.022Z,8
2022-07-31T19:51:06.727Z,6.7
2022-07-31T19:53:12.529Z,7.5
2022-07-31T19:55:18.318Z,7.2
2022-07-31T19:57:27.058Z,7
2022-07-31T20:03:44.447Z,7.1
2022-07-31T20:05:50.365Z,7.7
2022-07-31T20:07:55.999Z,5.3
2022-07-31T20:10:01.768Z,7.9
2022-07-31T20:12:10.518Z,8.8
2022-07-31T20:14:16.316Z,6.6
2022-07-31T20:16:22.090Z,6.6
2022-07-31T20:18:28.877Z,7.2
2022-07-31T20:20:33.650Z,5.7
2022-07-31T20:22:39.436Z,7.7
2022-07-31T20:24:45.221Z,5.8
2022-07-31T20:28:59.744Z,7.3
2022-07-31T20:35:32.870Z,6.4
2022-07-31T20:39:33.920Z,7.5
2022-07-31T20:41:37.438Z,6.5
2022-07-31T20:43:43.223Z,6.6
2022-07-31T20:45:49.019Z,9.4
2022-07-31T20:46:53.403Z,8.1
2022-07-31T20:48:59.311Z,7.4
2022-07-31T20:51:04.979Z,8.7
2022-07-31T20:53:10.746Z,6.2
2022-07-31T20:55:19.518Z,9.7
2022-07-31T20:59:31.077Z,8.6
2022-07-31T21:01:38.546Z,8
2022-07-31T21:03:44.206Z,8.9
2022-07-31T21:10:05.232Z,11.3
2022-07-31T21:12:10.335Z,9.7
2022-07-31T21:14:16.085Z,8.2
2022-07-31T21:16:21.881Z,6.6
2022-07-31T21:18:30.448Z,7.7
2022-07-31T21:22:39.209Z,7.9
2022-07-31T21:24:47.989Z,9.1
2022-07-31T21:28:59.537Z,7.4
2022-07-31T21:31:05.362Z,9.1
2022-07-31T21:33:11.110Z,9.3
2022-07-31T21:35:16.891Z,9.2
2022-07-31T21:37:22.682Z,11.3
2022-07-31T21:39:31.445Z,9.8
2022-07-31T21:41:37.211Z,9.7
2022-07-31T21:43:58.772Z,9.3
2022-07-31T21:44:47.371Z,9.1
2022-07-31T21:48:59.012Z,10.8
2022-07-31T21:51:04.720Z,10.6
2022-07-31T21:55:19.297Z,9
2022-07-31T21:59:30.858Z,8.3
2022-07-31T22:01:36.712Z,6.8
2022-07-31T22:03:42.399Z,8
2022-07-31T22:05:48.187Z,6.7
2022-07-31T22:07:56.956Z,7.6
2022-07-31T22:10:02.755Z,7.3
2022-07-31T22:12:08.783Z,6.8
2022-07-31T22:14:14.337Z,7.4
2022-07-31T22:16:20.135Z,6.6
2022-07-31T22:18:26.308Z,6.3
2022-07-31T22:20:31.670Z,6.1
2022-07-31T22:22:40.428Z,7
2022-07-31T22:24:46.210Z,8.2
2022-07-31T22:26:51.983Z,7
2022-07-31T22:28:57.757Z,6.9
2022-07-31T22:31:03.558Z,6.8
2022-07-31T22:33:09.362Z,7.3
2022-07-31T22:37:23.909Z,6.5
2022-07-31T22:44:12.481Z,6.8
2022-07-31T22:46:12.506Z,5.5
2022-07-31T22:48:18.287Z,6.4
2022-07-31T22:50:27.070Z,8.3
2022-07-31T22:54:38.634Z,4.5
2022-07-31T22:56:44.458Z,4.8
2022-07-31T22:58:50.236Z,4.5
2022-07-31T23:00:56.038Z,5.6
2022-07-31T23:03:01.848Z,4
2022-07-31T23:07:16.379Z,4.6
2022-07-31T23:11:27.967Z,4.4
2022-07-31T23:13:33.802Z,4
2022-07-31T23:15:39.547Z,4.8
2022-07-31T23:17:45.364Z,5.5
2022-07-31T23:19:54.725Z,4.2
2022-07-31T23:21:59.939Z,3.5
2022-07-31T23:24:05.721Z,3.9
2022-07-31T23:26:11.684Z,3.5
2022-07-31T23:28:17.308Z,4.5
2022-07-31T23:30:23.082Z,3.7
2022-07-31T23:32:28.917Z,3.9
2022-07-31T23:34:37.695Z,5.6
2022-07-31T23:36:43.429Z,4
2022-07-31T23:38:49.242Z,3.9
2022-07-31T23:39:53.624Z,4.2
2022-07-31T23:41:59.404Z,4.6
2022-07-31T23:44:05.186Z,4.1
2022-07-31T23:46:10.980Z,3.8
2022-07-31T23:48:19.760Z,4.7
2022-07-31T23:54:37.160Z,4
2022-07-31T23:56:42.933Z,3.9
2022-07-31T23:58:48.717Z,2.9
